sensor_id;sensor_type;location;lat;lon;timestamp;P1;durP1;ratioP1;P2;durP2;ratioP2
7359;SDS011;3720;48.274;7.796;2023-12-04T00:01:27;25.47;;;14.13;;
7359;SDS011;3720;48.274;7.796;2023-12-04T00:03:59;25.47;;;14.23;;
7359;SDS011;3720;48.274;7.796;2023-12-04T00:06:32;27.23;;;13.60;;
7359;SDS011;3720;48.274;7.796;2023-12-04T00:09:03;24.73;;;12.60;;
7359;SDS011;3720;48.274;7.796;2023-12-04T00:11:35;19.57;;;11.00;;
7359;SDS011;3720;48.274;7.796;2023-12-04T00:14:07;22.23;;;11.27;;
7359;SDS011;3720;48.274;7.796;2023-12-04T00:16:40;19.00;;;9.97;;
7359;SDS011;3720;48.274;7.796;2023-12-04T00:19:12;18.57;;;10.60;;
7359;SDS011;3720;48.274;7.796;2023-12-04T00:21:44;19.17;;;10.33;;
7359;SDS011;3720;48.274;7.796;2023-12-04T00:24:16;16.13;;;9.10;;
7359;SDS011;3720;48.274;7.796;2023-12-04T00:26:48;18.63;;;10.47;;
7359;SDS011;3720;48.274;7.796;2023-12-04T00:29:19;17.83;;;9.83;;
7359;SDS011;3720;48.274;7.796;2023-12-04T00:31:53;22.67;;;11.73;;
7359;SDS011;3720;48.274;7.796;2023-12-04T00:34:27;24.30;;;12.43;;
7359;SDS011;3720;48.274;7.796;2023-12-04T00:36:58;21.87;;;11.57;;
7359;SDS011;3720;48.274;7.796;2023-12-04T00:39:30;23.80;;;11.80;;
7359;SDS011;3720;48.274;7.796;2023-12-04T00:42:02;24.43;;;11.50;;
7359;SDS011;3720;48.274;7.796;2023-12-04T00:44:34;23.20;;;11.30;;
7359;SDS011;3720;48.274;7.796;2023-12-04T00:47:07;21.83;;;11.07;;
7359;SDS011;3720;48.274;7.796;2023-12-04T00:49:39;23.00;;;11.87;;
7359;SDS011;3720;48.274;7.796;2023-12-04T00:52:11;22.17;;;11.33;;
7359;SDS011;3720;48.274;7.796;2023-12-04T00:54:43;21.17;;;10.73;;
7359;SDS011;3720;48.274;7.796;2023-12-04T00:57:14;18.53;;;9.30;;
7359;SDS011;3720;48.274;7.796;2023-12-04T00:59:46;17.53;;;9.37;;
7359;SDS011;3720;48.274;7.796;2023-12-04T01:02:20;16.07;;;8.63;;
7359;SDS011;3720;48.274;7.796;2023-12-04T01:04:52;16.63;;;8.63;;
7359;SDS011;3720;48.274;7.796;2023-12-04T01:07:23;15.53;;;8.13;;
7359;SDS011;3720;48.274;7.796;2023-12-04T01:09:55;21.80;;;10.30;;
7359;SDS011;3720;48.274;7.796;2023-12-04T01:12:27;22.87;;;10.97;;
7359;SDS011;3720;48.274;7.796;2023-12-04T01:14:59;21.30;;;10.30;;
7359;SDS011;3720;48.274;7.796;2023-12-04T01:17:33;21.33;;;9.70;;
7359;SDS011;3720;48.274;7.796;2023-12-04T01:20:05;18.50;;;9.53;;
7359;SDS011;3720;48.274;7.796;2023-12-04T01:22:38;17.50;;;9.70;;
7359;SDS011;3720;48.274;7.796;2023-12-04T01:25:20;18.00;;;9.90;;
7359;SDS011;3720;48.274;7.796;2023-12-04T01:27:51;16.40;;;8.80;;
7359;SDS011;3720;48.274;7.796;2023-12-04T01:30:23;18.17;;;8.57;;
7359;SDS011;3720;48.274;7.796;2023-12-04T01:32:56;17.37;;;9.50;;
7359;SDS011;3720;48.274;7.796;2023-12-04T01:35:28;15.40;;;8.63;;
7359;SDS011;3720;48.274;7.796;2023-12-04T01:38:00;16.53;;;8.73;;
7359;SDS011;3720;48.274;7.796;2023-12-04T01:40:31;15.13;;;8.43;;
7359;SDS011;3720;48.274;7.796;2023-12-04T01:43:03;15.53;;;8.40;;
7359;SDS011;3720;48.274;7.796;2023-12-04T01:45:36;18.03;;;8.33;;
7359;SDS011;3720;48.274;7.796;2023-12-04T01:48:09;13.40;;;7.40;;
7359;SDS011;3720;48.274;7.796;2023-12-04T01:50:42;16.30;;;8.53;;
7359;SDS011;3720;48.274;7.796;2023-12-04T01:53:14;19.20;;;9.17;;
7359;SDS011;3720;48.274;7.796;2023-12-04T01:55:46;17.13;;;8.20;;
7359;SDS011;3720;48.274;7.796;2023-12-04T01:58:18;15.90;;;8.03;;
7359;SDS011;3720;48.274;7.796;2023-12-04T02:00:50;15.17;;;8.37;;
7359;SDS011;3720;48.274;7.796;2023-12-04T02:03:23;20.33;;;9.40;;
7359;SDS011;3720;48.274;7.796;2023-12-04T02:05:55;22.63;;;10.00;;
7359;SDS011;3720;48.274;7.796;2023-12-04T02:08:32;23.00;;;10.83;;
7359;SDS011;3720;48.274;7.796;2023-12-04T02:11:05;21.23;;;10.90;;
7359;SDS011;3720;48.274;7.796;2023-12-04T02:13:37;18.67;;;11.03;;
7359;SDS011;3720;48.274;7.796;2023-12-04T02:16:09;22.00;;;10.80;;
7359;SDS011;3720;48.274;7.796;2023-12-04T02:18:45;20.73;;;10.70;;
7359;SDS011;3720;48.274;7.796;2023-12-04T02:21:17;18.53;;;9.97;;
7359;SDS011;3720;48.274;7.796;2023-12-04T02:23:51;19.43;;;10.43;;
7359;SDS011;3720;48.274;7.796;2023-12-04T02:26:24;16.27;;;8.83;;
7359;SDS011;3720;48.274;7.796;2023-12-04T02:29:03;17.47;;;8.83;;
7359;SDS011;3720;48.274;7.796;2023-12-04T02:31:41;14.83;;;8.27;;
7359;SDS011;3720;48.274;7.796;2023-12-04T02:34:14;14.37;;;8.40;;
7359;SDS011;3720;48.274;7.796;2023-12-04T02:36:47;13.90;;;7.67;;
7359;SDS011;3720;48.274;7.796;2023-12-04T02:39:21;13.00;;;7.73;;
7359;SDS011;3720;48.274;7.796;2023-12-04T02:41:53;15.77;;;7.60;;
7359;SDS011;3720;48.274;7.796;2023-12-04T02:44:25;15.83;;;8.57;;
7359;SDS011;3720;48.274;7.796;2023-12-04T02:46:57;17.10;;;9.30;;
7359;SDS011;3720;48.274;7.796;2023-12-04T02:49:29;16.30;;;8.47;;
7359;SDS011;3720;48.274;7.796;2023-12-04T02:52:00;14.73;;;8.07;;
7359;SDS011;3720;48.274;7.796;2023-12-04T02:54:34;15.13;;;8.37;;
7359;SDS011;3720;48.274;7.796;2023-12-04T02:57:06;15.17;;;8.53;;
7359;SDS011;3720;48.274;7.796;2023-12-04T02:59:38;15.53;;;9.10;;
7359;SDS011;3720;48.274;7.796;2023-12-04T03:02:10;18.37;;;9.53;;
7359;SDS011;3720;48.274;7.796;2023-12-04T03:04:42;19.87;;;9.93;;
7359;SDS011;3720;48.274;7.796;2023-12-04T03:07:14;19.67;;;9.97;;
7359;SDS011;3720;48.274;7.796;2023-12-04T03:09:47;16.50;;;9.57;;
7359;SDS011;3720;48.274;7.796;2023-12-04T03:12:18;19.00;;;9.90;;
7359;SDS011;3720;48.274;7.796;2023-12-04T03:14:50;17.93;;;9.40;;
7359;SDS011;3720;48.274;7.796;2023-12-04T03:17:22;15.43;;;8.60;;
7359;SDS011;3720;48.274;7.796;2023-12-04T03:19:54;16.30;;;9.00;;
7359;SDS011;3720;48.274;7.796;2023-12-04T03:22:26;17.00;;;9.37;;
7359;SDS011;3720;48.274;7.796;2023-12-04T03:24:59;15.90;;;8.73;;
7359;SDS011;3720;48.274;7.796;2023-12-04T03:27:30;16.87;;;9.20;;
7359;SDS011;3720;48.274;7.796;2023-12-04T03:30:03;16.20;;;8.93;;
7359;SDS011;3720;48.274;7.796;2023-12-04T03:32:35;16.30;;;9.20;;
7359;SDS011;3720;48.274;7.796;2023-12-04T03:35:07;17.73;;;9.50;;
7359;SDS011;3720;48.274;7.796;2023-12-04T03:37:39;16.03;;;8.90;;
7359;SDS011;3720;48.274;7.796;2023-12-04T03:40:12;19.00;;;9.40;;
7359;SDS011;3720;48.274;7.796;2023-12-04T03:42:44;19.60;;;9.93;;
7359;SDS011;3720;48.274;7.796;2023-12-04T03:45:16;18.30;;;9.30;;
7359;SDS011;3720;48.274;7.796;2023-12-04T03:47:48;17.60;;;8.87;;
7359;SDS011;3720;48.274;7.796;2023-12-04T03:50:19;16.50;;;8.87;;
7359;SDS011;3720;48.274;7.796;2023-12-04T03:52:51;15.37;;;7.97;;
7359;SDS011;3720;48.274;7.796;2023-12-04T03:55:24;13.77;;;7.57;;
7359;SDS011;3720;48.274;7.796;2023-12-04T03:57:56;12.77;;;7.40;;
7359;SDS011;3720;48.274;7.796;2023-12-04T04:00:29;11.77;;;6.93;;
7359;SDS011;3720;48.274;7.796;2023-12-04T04:03:01;11.67;;;6.13;;
7359;SDS011;3720;48.274;7.796;2023-12-04T04:05:32;11.50;;;5.80;;
7359;SDS011;3720;48.274;7.796;2023-12-04T04:08:05;10.60;;;5.80;;
7359;SDS011;3720;48.274;7.796;2023-12-04T04:10:39;13.07;;;7.30;;
7359;SDS011;3720;48.274;7.796;2023-12-04T04:13:11;13.43;;;7.37;;
7359;SDS011;3720;48.274;7.796;2023-12-04T04:15:42;11.20;;;6.80;;
7359;SDS011;3720;48.274;7.796;2023-12-04T04:18:16;13.65;;;7.38;;
7359;SDS011;3720;48.274;7.796;2023-12-04T04:20:47;13.93;;;7.20;;
7359;SDS011;3720;48.274;7.796;2023-12-04T04:23:19;12.53;;;7.30;;
7359;SDS011;3720;48.274;7.796;2023-12-04T04:25:52;12.70;;;7.03;;
7359;SDS011;3720;48.274;7.796;2023-12-04T04:28:24;12.27;;;6.97;;
7359;SDS011;3720;48.274;7.796;2023-12-04T04:30:56;13.50;;;7.03;;
7359;SDS011;3720;48.274;7.796;2023-12-04T04:33:28;14.07;;;7.53;;
7359;SDS011;3720;48.274;7.796;2023-12-04T04:35:59;15.50;;;8.03;;
7359;SDS011;3720;48.274;7.796;2023-12-04T04:38:31;16.27;;;8.73;;
7359;SDS011;3720;48.274;7.796;2023-12-04T04:41:05;17.43;;;9.10;;
7359;SDS011;3720;48.274;7.796;2023-12-04T04:43:37;17.30;;;10.03;;
7359;SDS011;3720;48.274;7.796;2023-12-04T04:46:09;19.48;;;10.32;;
7359;SDS011;3720;48.274;7.796;2023-12-04T04:48:41;17.80;;;9.20;;
7359;SDS011;3720;48.274;7.796;2023-12-04T04:51:13;16.47;;;9.30;;
7359;SDS011;3720;48.274;7.796;2023-12-04T04:53:45;17.20;;;9.03;;
7359;SDS011;3720;48.274;7.796;2023-12-04T04:56:18;19.73;;;10.27;;
7359;SDS011;3720;48.274;7.796;2023-12-04T04:58:50;22.63;;;11.82;;
7359;SDS011;3720;48.274;7.796;2023-12-04T05:01:21;25.43;;;13.30;;
7359;SDS011;3720;48.274;7.796;2023-12-04T05:03:53;23.93;;;13.50;;
7359;SDS011;3720;48.274;7.796;2023-12-04T05:06:25;27.20;;;15.47;;
7359;SDS011;3720;48.274;7.796;2023-12-04T05:08:57;31.00;;;15.33;;
7359;SDS011;3720;48.274;7.796;2023-12-04T05:11:30;30.42;;;16.17;;
7359;SDS011;3720;48.274;7.796;2023-12-04T05:14:02;32.45;;;17.25;;
7359;SDS011;3720;48.274;7.796;2023-12-04T05:16:34;31.20;;;16.67;;
7359;SDS011;3720;48.274;7.796;2023-12-04T05:19:06;34.20;;;17.87;;
7359;SDS011;3720;48.274;7.796;2023-12-04T05:21:38;33.72;;;17.83;;
7359;SDS011;3720;48.274;7.796;2023-12-04T05:24:10;32.55;;;16.55;;
7359;SDS011;3720;48.274;7.796;2023-12-04T05:26:44;34.43;;;18.60;;
7359;SDS011;3720;48.274;7.796;2023-12-04T05:29:15;33.93;;;17.47;;
7359;SDS011;3720;48.274;7.796;2023-12-04T05:31:47;34.60;;;18.10;;
7359;SDS011;3720;48.274;7.796;2023-12-04T05:34:19;33.97;;;18.57;;
7359;SDS011;3720;48.274;7.796;2023-12-04T05:36:51;36.70;;;18.77;;
7359;SDS011;3720;48.274;7.796;2023-12-04T05:39:23;34.80;;;18.30;;
7359;SDS011;3720;48.274;7.796;2023-12-04T05:41:56;34.20;;;18.52;;
7359;SDS011;3720;48.274;7.796;2023-12-04T05:44:28;34.15;;;18.45;;
7359;SDS011;3720;48.274;7.796;2023-12-04T05:46:59;34.53;;;18.60;;
7359;SDS011;3720;48.274;7.796;2023-12-04T05:49:31;34.77;;;18.23;;
7359;SDS011;3720;48.274;7.796;2023-12-04T05:52:03;34.23;;;18.10;;
7359;SDS011;3720;48.274;7.796;2023-12-04T05:54:35;35.73;;;19.27;;
7359;SDS011;3720;48.274;7.796;2023-12-04T05:57:08;38.13;;;19.60;;
7359;SDS011;3720;48.274;7.796;2023-12-04T05:59:40;36.53;;;18.42;;
7359;SDS011;3720;48.274;7.796;2023-12-04T06:02:13;36.47;;;19.20;;
7359;SDS011;3720;48.274;7.796;2023-12-04T06:04:45;42.17;;;22.57;;
7359;SDS011;3720;48.274;7.796;2023-12-04T06:07:17;44.97;;;25.13;;
7359;SDS011;3720;48.274;7.796;2023-12-04T06:09:48;41.00;;;24.08;;
7359;SDS011;3720;48.274;7.796;2023-12-04T06:12:22;39.00;;;22.00;;
7359;SDS011;3720;48.274;7.796;2023-12-04T06:14:53;36.57;;;20.07;;
7359;SDS011;3720;48.274;7.796;2023-12-04T06:17:25;35.13;;;19.90;;
7359;SDS011;3720;48.274;7.796;2023-12-04T06:19:57;32.88;;;18.73;;
7359;SDS011;3720;48.274;7.796;2023-12-04T06:22:29;34.20;;;18.60;;
7359;SDS011;3720;48.274;7.796;2023-12-04T06:25:01;37.50;;;20.27;;
7359;SDS011;3720;48.274;7.796;2023-12-04T06:27:36;40.00;;;20.55;;
7359;SDS011;3720;48.274;7.796;2023-12-04T06:30:09;36.80;;;19.27;;
7359;SDS011;3720;48.274;7.796;2023-12-04T06:32:42;38.15;;;19.42;;
7359;SDS011;3720;48.274;7.796;2023-12-04T06:35:15;37.05;;;18.52;;
7359;SDS011;3720;48.274;7.796;2023-12-04T06:37:48;37.97;;;19.60;;
7359;SDS011;3720;48.274;7.796;2023-12-04T06:40:21;36.45;;;19.35;;
7359;SDS011;3720;48.274;7.796;2023-12-04T06:42:55;36.75;;;18.83;;
7359;SDS011;3720;48.274;7.796;2023-12-04T06:45:27;36.22;;;18.55;;
7359;SDS011;3720;48.274;7.796;2023-12-04T06:48:01;37.28;;;18.65;;
7359;SDS011;3720;48.274;7.796;2023-12-04T06:50:33;38.37;;;19.60;;
7359;SDS011;3720;48.274;7.796;2023-12-04T06:53:04;40.20;;;20.00;;
7359;SDS011;3720;48.274;7.796;2023-12-04T06:55:36;39.63;;;19.10;;
7359;SDS011;3720;48.274;7.796;2023-12-04T06:58:09;38.72;;;19.98;;
7359;SDS011;3720;48.274;7.796;2023-12-04T07:00:41;39.07;;;20.10;;
7359;SDS011;3720;48.274;7.796;2023-12-04T07:03:13;40.33;;;20.58;;
7359;SDS011;3720;48.274;7.796;2023-12-04T07:05:45;38.87;;;19.73;;
7359;SDS011;3720;48.274;7.796;2023-12-04T07:08:17;41.13;;;20.70;;
7359;SDS011;3720;48.274;7.796;2023-12-04T07:10:49;41.27;;;20.67;;
7359;SDS011;3720;48.274;7.796;2023-12-04T07:13:22;42.40;;;20.90;;
7359;SDS011;3720;48.274;7.796;2023-12-04T07:15:54;40.03;;;21.43;;
7359;SDS011;3720;48.274;7.796;2023-12-04T07:18:25;44.53;;;22.60;;
7359;SDS011;3720;48.274;7.796;2023-12-04T07:20:57;44.60;;;22.17;;
7359;SDS011;3720;48.274;7.796;2023-12-04T07:23:29;47.47;;;24.83;;
7359;SDS011;3720;48.274;7.796;2023-12-04T07:26:01;44.40;;;21.17;;
7359;SDS011;3720;48.274;7.796;2023-12-04T07:28:35;40.53;;;21.02;;
7359;SDS011;3720;48.274;7.796;2023-12-04T07:31:07;39.05;;;20.33;;
7359;SDS011;3720;48.274;7.796;2023-12-04T07:33:38;37.42;;;19.25;;
7359;SDS011;3720;48.274;7.796;2023-12-04T07:36:10;40.63;;;20.27;;
7359;SDS011;3720;48.274;7.796;2023-12-04T07:38:42;41.43;;;21.03;;
7359;SDS011;3720;48.274;7.796;2023-12-04T07:41:14;41.95;;;21.48;;
7359;SDS011;3720;48.274;7.796;2023-12-04T07:43:47;36.33;;;19.83;;
7359;SDS011;3720;48.274;7.796;2023-12-04T07:46:19;38.05;;;19.75;;
7359;SDS011;3720;48.274;7.796;2023-12-04T07:48:51;37.92;;;19.02;;
7359;SDS011;3720;48.274;7.796;2023-12-04T07:51:23;37.93;;;20.10;;
7359;SDS011;3720;48.274;7.796;2023-12-04T07:53:55;38.17;;;19.40;;
7359;SDS011;3720;48.274;7.796;2023-12-04T07:56:26;39.03;;;20.83;;
7359;SDS011;3720;48.274;7.796;2023-12-04T07:59:00;39.15;;;19.75;;
7359;SDS011;3720;48.274;7.796;2023-12-04T08:01:31;40.10;;;20.88;;
7359;SDS011;3720;48.274;7.796;2023-12-04T08:04:04;41.47;;;21.50;;
7359;SDS011;3720;48.274;7.796;2023-12-04T08:06:36;42.97;;;21.00;;
7359;SDS011;3720;48.274;7.796;2023-12-04T08:09:08;38.60;;;20.33;;
7359;SDS011;3720;48.274;7.796;2023-12-04T08:11:40;38.53;;;20.53;;
7359;SDS011;3720;48.274;7.796;2023-12-04T08:14:13;39.07;;;20.23;;
7359;SDS011;3720;48.274;7.796;2023-12-04T08:16:47;36.08;;;20.00;;
7359;SDS011;3720;48.274;7.796;2023-12-04T08:19:19;40.73;;;20.87;;
7359;SDS011;3720;48.274;7.796;2023-12-04T08:21:52;38.60;;;20.37;;
7359;SDS011;3720;48.274;7.796;2023-12-04T08:24:25;39.00;;;20.10;;
7359;SDS011;3720;48.274;7.796;2023-12-04T08:26:57;37.88;;;19.17;;
7359;SDS011;3720;48.274;7.796;2023-12-04T08:29:30;40.90;;;20.73;;
7359;SDS011;3720;48.274;7.796;2023-12-04T08:32:02;37.70;;;20.02;;
7359;SDS011;3720;48.274;7.796;2023-12-04T08:34:34;38.95;;;19.77;;
7359;SDS011;3720;48.274;7.796;2023-12-04T08:37:06;38.72;;;20.55;;
7359;SDS011;3720;48.274;7.796;2023-12-04T08:39:38;37.40;;;19.45;;
7359;SDS011;3720;48.274;7.796;2023-12-04T08:42:10;40.10;;;19.25;;
7359;SDS011;3720;48.274;7.796;2023-12-04T08:44:43;39.28;;;19.55;;
7359;SDS011;3720;48.274;7.796;2023-12-04T08:47:17;42.88;;;20.52;;
7359;SDS011;3720;48.274;7.796;2023-12-04T08:49:49;39.05;;;20.45;;
7359;SDS011;3720;48.274;7.796;2023-12-04T08:52:21;37.53;;;20.73;;
7359;SDS011;3720;48.274;7.796;2023-12-04T08:54:53;41.83;;;21.67;;
7359;SDS011;3720;48.274;7.796;2023-12-04T08:57:25;43.67;;;22.87;;
7359;SDS011;3720;48.274;7.796;2023-12-04T08:59:58;42.30;;;20.98;;
7359;SDS011;3720;48.274;7.796;2023-12-04T09:02:30;39.17;;;20.25;;
7359;SDS011;3720;48.274;7.796;2023-12-04T09:05:02;39.92;;;19.40;;
7359;SDS011;3720;48.274;7.796;2023-12-04T09:07:35;36.13;;;19.15;;
7359;SDS011;3720;48.274;7.796;2023-12-04T09:10:06;38.07;;;19.30;;
7359;SDS011;3720;48.274;7.796;2023-12-04T09:12:39;37.33;;;19.53;;
7359;SDS011;3720;48.274;7.796;2023-12-04T09:15:12;36.20;;;18.80;;
7359;SDS011;3720;48.274;7.796;2023-12-04T09:17:44;36.60;;;19.47;;
7359;SDS011;3720;48.274;7.796;2023-12-04T09:20:16;38.95;;;18.98;;
7359;SDS011;3720;48.274;7.796;2023-12-04T09:22:48;37.23;;;19.97;;
7359;SDS011;3720;48.274;7.796;2023-12-04T09:25:20;35.60;;;18.90;;
7359;SDS011;3720;48.274;7.796;2023-12-04T09:27:52;36.58;;;18.77;;
7359;SDS011;3720;48.274;7.796;2023-12-04T09:30:25;34.40;;;17.98;;
7359;SDS011;3720;48.274;7.796;2023-12-04T09:32:57;32.00;;;17.52;;
7359;SDS011;3720;48.274;7.796;2023-12-04T09:35:29;35.13;;;17.85;;
7359;SDS011;3720;48.274;7.796;2023-12-04T09:38:01;37.72;;;19.00;;
7359;SDS011;3720;48.274;7.796;2023-12-04T09:40:33;36.57;;;18.57;;
7359;SDS011;3720;48.274;7.796;2023-12-04T09:43:05;41.03;;;19.73;;
7359;SDS011;3720;48.274;7.796;2023-12-04T09:45:38;39.80;;;19.70;;
7359;SDS011;3720;48.274;7.796;2023-12-04T09:48:11;37.90;;;19.40;;
7359;SDS011;3720;48.274;7.796;2023-12-04T09:50:43;39.92;;;19.63;;
7359;SDS011;3720;48.274;7.796;2023-12-04T09:53:18;38.15;;;19.75;;
7359;SDS011;3720;48.274;7.796;2023-12-04T09:55:51;40.65;;;19.70;;
7359;SDS011;3720;48.274;7.796;2023-12-04T09:58:25;38.70;;;19.83;;
7359;SDS011;3720;48.274;7.796;2023-12-04T10:01:00;41.50;;;19.98;;
7359;SDS011;3720;48.274;7.796;2023-12-04T10:03:32;40.95;;;20.98;;
7359;SDS011;3720;48.274;7.796;2023-12-04T10:06:06;41.97;;;19.75;;
7359;SDS011;3720;48.274;7.796;2023-12-04T10:08:39;40.05;;;19.52;;
7359;SDS011;3720;48.274;7.796;2023-12-04T10:11:12;41.97;;;20.45;;
7359;SDS011;3720;48.274;7.796;2023-12-04T10:13:44;40.28;;;20.45;;
7359;SDS011;3720;48.274;7.796;2023-12-04T10:16:27;38.92;;;19.88;;
7359;SDS011;3720;48.274;7.796;2023-12-04T10:21:49;39.13;;;18.17;;
7359;SDS011;3720;48.274;7.796;2023-12-04T10:24:29;37.58;;;19.48;;
7359;SDS011;3720;48.274;7.796;2023-12-04T10:27:02;36.78;;;19.67;;
7359;SDS011;3720;48.274;7.796;2023-12-04T10:29:42;37.38;;;19.08;;
7359;SDS011;3720;48.274;7.796;2023-12-04T10:32:19;35.85;;;19.27;;
7359;SDS011;3720;48.274;7.796;2023-12-04T10:34:51;31.65;;;16.65;;
7359;SDS011;3720;48.274;7.796;2023-12-04T10:37:26;29.60;;;16.17;;
7359;SDS011;3720;48.274;7.796;2023-12-04T10:40:00;32.85;;;16.65;;
7359;SDS011;3720;48.274;7.796;2023-12-04T10:42:33;27.13;;;14.88;;
7359;SDS011;3720;48.274;7.796;2023-12-04T10:45:05;29.20;;;15.68;;
7359;SDS011;3720;48.274;7.796;2023-12-04T10:47:39;31.85;;;16.92;;
7359;SDS011;3720;48.274;7.796;2023-12-04T10:50:11;30.73;;;16.50;;
7359;SDS011;3720;48.274;7.796;2023-12-04T10:52:44;30.70;;;15.95;;
7359;SDS011;3720;48.274;7.796;2023-12-04T10:55:18;32.25;;;17.77;;
7359;SDS011;3720;48.274;7.796;2023-12-04T10:57:50;33.22;;;18.00;;
7359;SDS011;3720;48.274;7.796;2023-12-04T11:00:25;31.80;;;16.83;;
7359;SDS011;3720;48.274;7.796;2023-12-04T11:03:02;35.78;;;18.40;;
7359;SDS011;3720;48.274;7.796;2023-12-04T11:05:37;33.25;;;17.10;;
7359;SDS011;3720;48.274;7.796;2023-12-04T11:08:11;31.58;;;17.77;;
7359;SDS011;3720;48.274;7.796;2023-12-04T11:10:48;34.78;;;18.92;;
7359;SDS011;3720;48.274;7.796;2023-12-04T11:13:29;34.80;;;18.05;;
7359;SDS011;3720;48.274;7.796;2023-12-04T11:16:05;36.72;;;19.40;;
7359;SDS011;3720;48.274;7.796;2023-12-04T11:18:44;39.15;;;19.98;;
7359;SDS011;3720;48.274;7.796;2023-12-04T11:21:22;35.95;;;19.08;;
7359;SDS011;3720;48.274;7.796;2023-12-04T11:23:55;36.78;;;19.50;;
7359;SDS011;3720;48.274;7.796;2023-12-04T11:26:28;36.30;;;18.83;;
7359;SDS011;3720;48.274;7.796;2023-12-04T11:29:01;36.25;;;19.30;;
7359;SDS011;3720;48.274;7.796;2023-12-04T11:31:34;35.97;;;19.27;;
7359;SDS011;3720;48.274;7.796;2023-12-04T11:34:07;36.58;;;19.23;;
7359;SDS011;3720;48.274;7.796;2023-12-04T11:36:41;35.42;;;19.10;;
7359;SDS011;3720;48.274;7.796;2023-12-04T11:39:14;35.25;;;17.85;;
7359;SDS011;3720;48.274;7.796;2023-12-04T11:41:46;33.20;;;17.38;;
7359;SDS011;3720;48.274;7.796;2023-12-04T11:44:17;34.72;;;19.05;;
7359;SDS011;3720;48.274;7.796;2023-12-04T11:46:56;33.72;;;18.65;;
7359;SDS011;3720;48.274;7.796;2023-12-04T11:49:34;46.25;;;24.63;;
7359;SDS011;3720;48.274;7.796;2023-12-04T11:52:07;48.25;;;26.08;;
7359;SDS011;3720;48.274;7.796;2023-12-04T11:54:56;42.67;;;23.08;;
7359;SDS011;3720;48.274;7.796;2023-12-04T11:57:32;47.67;;;24.90;;
7359;SDS011;3720;48.274;7.796;2023-12-04T12:00:11;40.55;;;23.83;;
7359;SDS011;3720;48.274;7.796;2023-12-04T12:02:47;40.38;;;22.67;;
7359;SDS011;3720;48.274;7.796;2023-12-04T12:05:34;40.60;;;22.52;;
7359;SDS011;3720;48.274;7.796;2023-12-04T12:08:08;37.47;;;19.70;;
7359;SDS011;3720;48.274;7.796;2023-12-04T12:10:41;33.53;;;19.42;;
7359;SDS011;3720;48.274;7.796;2023-12-04T12:13:13;36.15;;;19.40;;
7359;SDS011;3720;48.274;7.796;2023-12-04T12:15:46;32.72;;;18.17;;
7359;SDS011;3720;48.274;7.796;2023-12-04T12:18:21;34.47;;;19.13;;
7359;SDS011;3720;48.274;7.796;2023-12-04T12:20:55;34.85;;;19.02;;
7359;SDS011;3720;48.274;7.796;2023-12-04T12:23:27;33.50;;;17.95;;
7359;SDS011;3720;48.274;7.796;2023-12-04T12:25:59;34.22;;;18.70;;
7359;SDS011;3720;48.274;7.796;2023-12-04T12:28:31;34.67;;;18.98;;
7359;SDS011;3720;48.274;7.796;2023-12-04T12:31:05;38.83;;;21.75;;
7359;SDS011;3720;48.274;7.796;2023-12-04T12:33:37;36.60;;;19.52;;
7359;SDS011;3720;48.274;7.796;2023-12-04T12:36:13;36.05;;;18.27;;
7359;SDS011;3720;48.274;7.796;2023-12-04T12:38:47;33.50;;;18.67;;
7359;SDS011;3720;48.274;7.796;2023-12-04T12:41:20;35.38;;;18.83;;
7359;SDS011;3720;48.274;7.796;2023-12-04T12:43:52;33.47;;;18.75;;
7359;SDS011;3720;48.274;7.796;2023-12-04T12:46:24;33.90;;;18.70;;
7359;SDS011;3720;48.274;7.796;2023-12-04T12:48:56;35.55;;;19.30;;
7359;SDS011;3720;48.274;7.796;2023-12-04T12:51:29;36.78;;;19.42;;
7359;SDS011;3720;48.274;7.796;2023-12-04T12:54:02;35.45;;;19.67;;
7359;SDS011;3720;48.274;7.796;2023-12-04T12:56:35;33.78;;;19.10;;
7359;SDS011;3720;48.274;7.796;2023-12-04T12:59:06;35.25;;;18.80;;
7359;SDS011;3720;48.274;7.796;2023-12-04T13:01:38;34.25;;;19.30;;
7359;SDS011;3720;48.274;7.796;2023-12-04T13:04:13;35.38;;;19.38;;
7359;SDS011;3720;48.274;7.796;2023-12-04T13:06:47;35.53;;;18.80;;
7359;SDS011;3720;48.274;7.796;2023-12-04T13:09:19;36.83;;;19.27;;
7359;SDS011;3720;48.274;7.796;2023-12-04T13:11:51;34.58;;;19.35;;
7359;SDS011;3720;48.274;7.796;2023-12-04T13:14:23;33.70;;;19.30;;
7359;SDS011;3720;48.274;7.796;2023-12-04T13:16:55;36.17;;;18.90;;
7359;SDS011;3720;48.274;7.796;2023-12-04T13:19:27;35.42;;;19.60;;
7359;SDS011;3720;48.274;7.796;2023-12-04T13:22:03;36.53;;;20.30;;
7359;SDS011;3720;48.274;7.796;2023-12-04T13:24:35;42.25;;;21.48;;
7359;SDS011;3720;48.274;7.796;2023-12-04T13:27:07;38.67;;;21.02;;
7359;SDS011;3720;48.274;7.796;2023-12-04T13:29:39;47.03;;;23.85;;
7359;SDS011;3720;48.274;7.796;2023-12-04T13:32:11;43.05;;;23.00;;
7359;SDS011;3720;48.274;7.796;2023-12-04T13:34:43;41.17;;;22.45;;
7359;SDS011;3720;48.274;7.796;2023-12-04T13:37:16;39.10;;;22.02;;
7359;SDS011;3720;48.274;7.796;2023-12-04T13:39:48;42.55;;;22.38;;
7359;SDS011;3720;48.274;7.796;2023-12-04T13:42:21;44.53;;;22.92;;
7359;SDS011;3720;48.274;7.796;2023-12-04T13:45:11;39.35;;;20.73;;
7359;SDS011;3720;48.274;7.796;2023-12-04T13:47:43;41.60;;;21.48;;
7359;SDS011;3720;48.274;7.796;2023-12-04T13:50:14;38.28;;;19.75;;
7359;SDS011;3720;48.274;7.796;2023-12-04T13:52:48;38.25;;;20.30;;
7359;SDS011;3720;48.274;7.796;2023-12-04T13:55:25;37.08;;;19.75;;
7359;SDS011;3720;48.274;7.796;2023-12-04T13:58:13;37.72;;;20.65;;
7359;SDS011;3720;48.274;7.796;2023-12-04T14:01:07;34.35;;;19.83;;
7359;SDS011;3720;48.274;7.796;2023-12-04T14:03:44;34.70;;;18.85;;
7359;SDS011;3720;48.274;7.796;2023-12-04T14:06:16;40.35;;;20.33;;
7359;SDS011;3720;48.274;7.796;2023-12-04T14:08:49;38.35;;;20.70;;
7359;SDS011;3720;48.274;7.796;2023-12-04T14:11:20;35.63;;;20.20;;
7359;SDS011;3720;48.274;7.796;2023-12-04T14:13:52;42.40;;;22.88;;
7359;SDS011;3720;48.274;7.796;2023-12-04T14:16:25;39.90;;;21.15;;
7359;SDS011;3720;48.274;7.796;2023-12-04T14:18:56;40.08;;;21.10;;
7359;SDS011;3720;48.274;7.796;2023-12-04T14:21:28;39.15;;;20.48;;
7359;SDS011;3720;48.274;7.796;2023-12-04T14:24:03;38.13;;;20.70;;
7359;SDS011;3720;48.274;7.796;2023-12-04T14:26:35;40.03;;;21.10;;
7359;SDS011;3720;48.274;7.796;2023-12-04T14:29:07;40.78;;;21.88;;
7359;SDS011;3720;48.274;7.796;2023-12-04T14:31:39;38.42;;;20.88;;
7359;SDS011;3720;48.274;7.796;2023-12-04T14:34:11;37.45;;;20.95;;
7359;SDS011;3720;48.274;7.796;2023-12-04T14:36:43;40.17;;;21.48;;
7359;SDS011;3720;48.274;7.796;2023-12-04T14:39:16;38.72;;;21.50;;
7359;SDS011;3720;48.274;7.796;2023-12-04T14:41:48;44.15;;;22.15;;
7359;SDS011;3720;48.274;7.796;2023-12-04T14:44:21;41.75;;;22.67;;
7359;SDS011;3720;48.274;7.796;2023-12-04T14:46:52;40.40;;;21.48;;
7359;SDS011;3720;48.274;7.796;2023-12-04T14:49:24;40.50;;;21.40;;
7359;SDS011;3720;48.274;7.796;2023-12-04T14:51:57;42.72;;;21.95;;
7359;SDS011;3720;48.274;7.796;2023-12-04T14:54:32;42.25;;;21.55;;
7359;SDS011;3720;48.274;7.796;2023-12-04T14:57:21;42.40;;;23.42;;
7359;SDS011;3720;48.274;7.796;2023-12-04T15:00:24;50.47;;;26.23;;
7359;SDS011;3720;48.274;7.796;2023-12-04T15:03:13;47.53;;;25.67;;
7359;SDS011;3720;48.274;7.796;2023-12-04T15:06:12;46.45;;;24.10;;
7359;SDS011;3720;48.274;7.796;2023-12-04T15:09:08;43.25;;;23.13;;
7359;SDS011;3720;48.274;7.796;2023-12-04T15:12:01;49.00;;;26.02;;
7359;SDS011;3720;48.274;7.796;2023-12-04T15:14:51;58.42;;;30.25;;
7359;SDS011;3720;48.274;7.796;2023-12-04T15:17:26;56.17;;;29.45;;
7359;SDS011;3720;48.274;7.796;2023-12-04T15:20:04;71.85;;;34.17;;
7359;SDS011;3720;48.274;7.796;2023-12-04T15:23:00;65.53;;;32.47;;
7359;SDS011;3720;48.274;7.796;2023-12-04T15:25:32;56.60;;;28.25;;
7359;SDS011;3720;48.274;7.796;2023-12-04T15:28:05;54.13;;;27.83;;
7359;SDS011;3720;48.274;7.796;2023-12-04T15:30:39;50.47;;;24.73;;